sensor_id;sensor_type;location;lat;lon;timestamp;P1;durP1;ratioP1;P2;durP2;ratioP2
25345;SDS011;13300;51.032;3.710;2022-08-21T00:01:46;7.80;;;2.70;;
25345;SDS011;13300;51.032;3.710;2022-08-21T00:04:11;10.48;;;3.00;;
25345;SDS011;13300;51.032;3.710;2022-08-21T00:06:38;12.15;;;3.03;;
25345;SDS011;13300;51.032;3.710;2022-08-21T00:09:05;9.98;;;3.38;;
25345;SDS011;13300;51.032;3.710;2022-08-21T00:11:34;6.38;;;2.92;;
25345;SDS011;13300;51.032;3.710;2022-08-21T00:14:01;8.23;;;3.03;;
25345;SDS011;13300;51.032;3.710;2022-08-21T00:16:27;12.25;;;3.20;;
25345;SDS011;13300;51.032;3.710;2022-08-21T00:18:53;9.60;;;2.85;;
25345;SDS011;13300;51.032;3.710;2022-08-21T00:21:19;8.75;;;2.78;;
25345;SDS011;13300;51.032;3.710;2022-08-21T00:23:44;8.18;;;3.05;;
25345;SDS011;13300;51.032;3.710;2022-08-21T00:26:10;8.88;;;3.42;;
25345;SDS011;13300;51.032;3.710;2022-08-21T00:28:36;9.40;;;3.20;;
25345;SDS011;13300;51.032;3.710;2022-08-21T00:31:01;9.02;;;3.03;;
25345;SDS011;13300;51.032;3.710;2022-08-21T00:33:29;8.50;;;3.33;;
25345;SDS011;13300;51.032;3.710;2022-08-21T00:35:55;8.13;;;3.67;;
25345;SDS011;13300;51.032;3.710;2022-08-21T00:38:21;8.77;;;3.05;;
25345;SDS011;13300;51.032;3.710;2022-08-21T00:40:51;7.18;;;2.95;;
25345;SDS011;13300;51.032;3.710;2022-08-21T00:43:21;14.50;;;3.67;;
25345;SDS011;13300;51.032;3.710;2022-08-21T00:48:15;10.52;;;2.97;;
25345;SDS011;13300;51.032;3.710;2022-08-21T00:50:44;12.50;;;3.60;;
25345;SDS011;13300;51.032;3.710;2022-08-21T00:53:15;7.05;;;2.90;;
25345;SDS011;13300;51.032;3.710;2022-08-21T00:55:42;8.65;;;3.00;;
25345;SDS011;13300;51.032;3.710;2022-08-21T00:58:09;8.40;;;3.05;;
25345;SDS011;13300;51.032;3.710;2022-08-21T01:00:38;9.45;;;3.00;;
25345;SDS011;13300;51.032;3.710;2022-08-21T01:03:08;8.95;;;3.10;;
25345;SDS011;13300;51.032;3.710;2022-08-21T01:05:36;8.45;;;3.33;;
25345;SDS011;13300;51.032;3.710;2022-08-21T01:08:03;10.88;;;3.13;;
25345;SDS011;13300;51.032;3.710;2022-08-21T01:10:29;7.63;;;2.70;;
25345;SDS011;13300;51.032;3.710;2022-08-21T01:12:55;6.75;;;2.65;;
25345;SDS011;13300;51.032;3.710;2022-08-21T01:15:30;8.13;;;3.13;;
25345;SDS011;13300;51.032;3.710;2022-08-21T01:17:58;10.07;;;2.70;;
25345;SDS011;13300;51.032;3.710;2022-08-21T01:20:25;10.77;;;2.95;;
25345;SDS011;13300;51.032;3.710;2022-08-21T01:22:51;10.13;;;2.85;;
25345;SDS011;13300;51.032;3.710;2022-08-21T01:25:17;9.30;;;2.80;;
25345;SDS011;13300;51.032;3.710;2022-08-21T01:27:45;8.02;;;3.10;;
25345;SDS011;13300;51.032;3.710;2022-08-21T01:30:18;12.07;;;3.83;;
25345;SDS011;13300;51.032;3.710;2022-08-21T01:32:47;10.93;;;2.97;;
25345;SDS011;13300;51.032;3.710;2022-08-21T01:35:14;13.20;;;3.03;;
25345;SDS011;13300;51.032;3.710;2022-08-21T01:37:41;9.48;;;3.22;;
25345;SDS011;13300;51.032;3.710;2022-08-21T01:40:08;8.25;;;3.03;;
25345;SDS011;13300;51.032;3.710;2022-08-21T01:42:35;8.73;;;3.00;;
25345;SDS011;13300;51.032;3.710;2022-08-21T01:45:02;8.93;;;2.75;;
25345;SDS011;13300;51.032;3.710;2022-08-21T01:47:29;9.20;;;3.00;;
25345;SDS011;13300;51.032;3.710;2022-08-21T01:49:55;10.98;;;3.22;;
25345;SDS011;13300;51.032;3.710;2022-08-21T01:52:20;10.20;;;3.00;;
25345;SDS011;13300;51.032;3.710;2022-08-21T01:54:46;7.38;;;2.80;;
25345;SDS011;13300;51.032;3.710;2022-08-21T01:57:12;12.95;;;2.95;;
25345;SDS011;13300;51.032;3.710;2022-08-21T01:59:39;11.95;;;3.67;;
25345;SDS011;13300;51.032;3.710;2022-08-21T02:02:05;11.40;;;3.17;;
25345;SDS011;13300;51.032;3.710;2022-08-21T02:04:31;8.32;;;3.25;;
25345;SDS011;13300;51.032;3.710;2022-08-21T02:06:57;9.05;;;3.30;;
25345;SDS011;13300;51.032;3.710;2022-08-21T02:09:25;7.47;;;2.85;;
25345;SDS011;13300;51.032;3.710;2022-08-21T02:11:50;12.82;;;3.50;;
25345;SDS011;13300;51.032;3.710;2022-08-21T02:14:16;11.15;;;2.92;;
25345;SDS011;13300;51.032;3.710;2022-08-21T02:16:42;8.85;;;2.83;;
25345;SDS011;13300;51.032;3.710;2022-08-21T02:19:10;10.70;;;3.10;;
25345;SDS011;13300;51.032;3.710;2022-08-21T02:21:37;11.27;;;3.00;;
25345;SDS011;13300;51.032;3.710;2022-08-21T02:24:03;10.43;;;3.45;;
25345;SDS011;13300;51.032;3.710;2022-08-21T02:26:29;9.23;;;3.05;;
25345;SDS011;13300;51.032;3.710;2022-08-21T02:28:55;7.22;;;3.17;;
25345;SDS011;13300;51.032;3.710;2022-08-21T02:31:21;11.02;;;2.95;;
25345;SDS011;13300;51.032;3.710;2022-08-21T02:33:47;8.75;;;2.85;;
25345;SDS011;13300;51.032;3.710;2022-08-21T02:36:13;8.30;;;3.25;;
25345;SDS011;13300;51.032;3.710;2022-08-21T02:38:39;12.00;;;3.10;;
25345;SDS011;13300;51.032;3.710;2022-08-21T02:41:07;9.70;;;3.53;;
25345;SDS011;13300;51.032;3.710;2022-08-21T02:43:37;7.43;;;3.13;;
25345;SDS011;13300;51.032;3.710;2022-08-21T02:46:03;8.85;;;3.13;;
25345;SDS011;13300;51.032;3.710;2022-08-21T02:48:31;12.43;;;3.50;;
25345;SDS011;13300;51.032;3.710;2022-08-21T02:50:59;8.07;;;3.45;;
25345;SDS011;13300;51.032;3.710;2022-08-21T02:53:27;14.30;;;4.38;;
25345;SDS011;13300;51.032;3.710;2022-08-21T02:55:54;7.95;;;3.00;;
25345;SDS011;13300;51.032;3.710;2022-08-21T02:58:23;14.15;;;3.53;;
25345;SDS011;13300;51.032;3.710;2022-08-21T03:00:51;11.02;;;3.35;;
25345;SDS011;13300;51.032;3.710;2022-08-21T03:03:17;12.45;;;3.58;;
25345;SDS011;13300;51.032;3.710;2022-08-21T03:05:46;9.77;;;3.00;;
25345;SDS011;13300;51.032;3.710;2022-08-21T03:08:13;12.93;;;3.55;;
25345;SDS011;13300;51.032;3.710;2022-08-21T03:10:41;12.95;;;3.60;;
25345;SDS011;13300;51.032;3.710;2022-08-21T03:13:09;9.27;;;3.65;;
25345;SDS011;13300;51.032;3.710;2022-08-21T03:15:36;11.23;;;3.85;;
25345;SDS011;13300;51.032;3.710;2022-08-21T03:18:02;8.10;;;2.97;;
25345;SDS011;13300;51.032;3.710;2022-08-21T03:20:30;10.02;;;2.97;;
25345;SDS011;13300;51.032;3.710;2022-08-21T03:22:57;12.55;;;3.20;;
25345;SDS011;13300;51.032;3.710;2022-08-21T03:25:24;13.60;;;3.70;;
25345;SDS011;13300;51.032;3.710;2022-08-21T03:27:52;7.60;;;3.25;;
25345;SDS011;13300;51.032;3.710;2022-08-21T03:30:19;4.40;;;2.83;;
25345;SDS011;13300;51.032;3.710;2022-08-21T03:32:46;14.38;;;3.92;;
25345;SDS011;13300;51.032;3.710;2022-08-21T03:35:12;13.70;;;4.28;;
25345;SDS011;13300;51.032;3.710;2022-08-21T03:37:38;9.68;;;3.45;;
25345;SDS011;13300;51.032;3.710;2022-08-21T03:40:05;9.90;;;3.58;;
25345;SDS011;13300;51.032;3.710;2022-08-21T03:42:32;9.82;;;3.72;;
25345;SDS011;13300;51.032;3.710;2022-08-21T03:44:59;9.43;;;3.30;;
25345;SDS011;13300;51.032;3.710;2022-08-21T03:47:25;7.50;;;3.20;;
25345;SDS011;13300;51.032;3.710;2022-08-21T03:49:50;9.27;;;3.53;;
25345;SDS011;13300;51.032;3.710;2022-08-21T03:52:16;6.07;;;2.72;;
25345;SDS011;13300;51.032;3.710;2022-08-21T03:54:43;10.00;;;3.10;;
25345;SDS011;13300;51.032;3.710;2022-08-21T03:57:09;6.63;;;2.88;;
25345;SDS011;13300;51.032;3.710;2022-08-21T03:59:36;11.88;;;3.90;;
25345;SDS011;13300;51.032;3.710;2022-08-21T04:02:03;8.85;;;3.78;;
25345;SDS011;13300;51.032;3.710;2022-08-21T04:04:31;10.95;;;3.25;;
25345;SDS011;13300;51.032;3.710;2022-08-21T04:06:57;13.35;;;3.50;;
25345;SDS011;13300;51.032;3.710;2022-08-21T04:09:23;10.10;;;3.53;;
25345;SDS011;13300;51.032;3.710;2022-08-21T04:11:49;11.18;;;3.88;;
25345;SDS011;13300;51.032;3.710;2022-08-21T04:14:15;15.45;;;3.55;;
25345;SDS011;13300;51.032;3.710;2022-08-21T04:16:42;8.73;;;3.30;;
25345;SDS011;13300;51.032;3.710;2022-08-21T04:19:08;9.52;;;3.90;;
25345;SDS011;13300;51.032;3.710;2022-08-21T04:21:37;8.55;;;3.85;;
25345;SDS011;13300;51.032;3.710;2022-08-21T04:24:03;11.63;;;3.88;;
25345;SDS011;13300;51.032;3.710;2022-08-21T04:26:30;13.07;;;4.10;;
25345;SDS011;13300;51.032;3.710;2022-08-21T04:28:56;13.10;;;4.03;;
25345;SDS011;13300;51.032;3.710;2022-08-21T04:31:23;9.10;;;4.15;;
25345;SDS011;13300;51.032;3.710;2022-08-21T04:33:50;9.50;;;3.50;;
25345;SDS011;13300;51.032;3.710;2022-08-21T04:36:16;10.82;;;3.17;;
25345;SDS011;13300;51.032;3.710;2022-08-21T04:38:42;8.35;;;3.63;;
25345;SDS011;13300;51.032;3.710;2022-08-21T04:41:07;6.95;;;3.88;;
25345;SDS011;13300;51.032;3.710;2022-08-21T04:43:33;11.75;;;3.72;;
25345;SDS011;13300;51.032;3.710;2022-08-21T04:45:59;16.83;;;4.38;;
25345;SDS011;13300;51.032;3.710;2022-08-21T04:48:25;12.20;;;3.72;;
25345;SDS011;13300;51.032;3.710;2022-08-21T04:53:27;10.25;;;3.65;;
25345;SDS011;13300;51.032;3.710;2022-08-21T04:55:55;10.25;;;3.67;;
25345;SDS011;13300;51.032;3.710;2022-08-21T04:58:25;13.90;;;3.53;;
25345;SDS011;13300;51.032;3.710;2022-08-21T05:00:52;12.32;;;4.10;;
25345;SDS011;13300;51.032;3.710;2022-08-21T05:03:20;8.15;;;3.63;;
25345;SDS011;13300;51.032;3.710;2022-08-21T05:05:47;10.73;;;3.72;;
25345;SDS011;13300;51.032;3.710;2022-08-21T05:08:14;10.82;;;3.92;;
25345;SDS011;13300;51.032;3.710;2022-08-21T05:10:42;13.60;;;4.18;;
25345;SDS011;13300;51.032;3.710;2022-08-21T05:13:09;11.65;;;4.47;;
25345;SDS011;13300;51.032;3.710;2022-08-21T05:15:37;14.38;;;3.75;;
25345;SDS011;13300;51.032;3.710;2022-08-21T05:18:04;8.70;;;3.83;;
25345;SDS011;13300;51.032;3.710;2022-08-21T05:20:30;10.43;;;3.50;;
25345;SDS011;13300;51.032;3.710;2022-08-21T05:22:56;13.52;;;4.15;;
25345;SDS011;13300;51.032;3.710;2022-08-21T05:25:22;9.60;;;3.78;;
25345;SDS011;13300;51.032;3.710;2022-08-21T05:27:48;8.15;;;4.00;;
25345;SDS011;13300;51.032;3.710;2022-08-21T05:30:13;10.15;;;3.85;;
25345;SDS011;13300;51.032;3.710;2022-08-21T05:32:39;12.07;;;3.80;;
25345;SDS011;13300;51.032;3.710;2022-08-21T05:35:05;13.77;;;3.83;;
25345;SDS011;13300;51.032;3.710;2022-08-21T05:37:32;8.82;;;3.90;;
25345;SDS011;13300;51.032;3.710;2022-08-21T05:39:59;10.88;;;4.20;;
25345;SDS011;13300;51.032;3.710;2022-08-21T05:42:25;10.38;;;3.80;;
25345;SDS011;13300;51.032;3.710;2022-08-21T05:44:51;12.48;;;3.97;;
25345;SDS011;13300;51.032;3.710;2022-08-21T05:47:17;8.02;;;3.22;;
25345;SDS011;13300;51.032;3.710;2022-08-21T05:49:43;13.80;;;3.88;;
25345;SDS011;13300;51.032;3.710;2022-08-21T05:52:09;11.43;;;4.00;;
25345;SDS011;13300;51.032;3.710;2022-08-21T05:54:35;12.23;;;3.92;;
25345;SDS011;13300;51.032;3.710;2022-08-21T05:57:01;9.32;;;3.80;;
25345;SDS011;13300;51.032;3.710;2022-08-21T05:59:27;11.73;;;3.83;;
25345;SDS011;13300;51.032;3.710;2022-08-21T06:01:53;8.10;;;3.42;;
25345;SDS011;13300;51.032;3.710;2022-08-21T06:04:18;11.38;;;3.97;;
25345;SDS011;13300;51.032;3.710;2022-08-21T06:06:44;11.30;;;3.85;;
25345;SDS011;13300;51.032;3.710;2022-08-21T06:09:11;9.75;;;4.25;;
25345;SDS011;13300;51.032;3.710;2022-08-21T06:11:37;10.35;;;3.72;;
25345;SDS011;13300;51.032;3.710;2022-08-21T06:14:03;10.65;;;3.75;;
25345;SDS011;13300;51.032;3.710;2022-08-21T06:16:31;11.80;;;4.40;;
25345;SDS011;13300;51.032;3.710;2022-08-21T06:18:57;15.35;;;4.10;;
25345;SDS011;13300;51.032;3.710;2022-08-21T06:21:22;13.38;;;3.63;;
25345;SDS011;13300;51.032;3.710;2022-08-21T06:23:48;13.77;;;4.00;;
25345;SDS011;13300;51.032;3.710;2022-08-21T06:26:14;12.95;;;3.92;;
25345;SDS011;13300;51.032;3.710;2022-08-21T06:28:40;14.57;;;3.67;;
25345;SDS011;13300;51.032;3.710;2022-08-21T06:31:26;10.32;;;3.30;;
25345;SDS011;13300;51.032;3.710;2022-08-21T06:33:53;18.33;;;3.83;;
25345;SDS011;13300;51.032;3.710;2022-08-21T06:36:18;11.00;;;3.67;;
25345;SDS011;13300;51.032;3.710;2022-08-21T06:38:45;17.83;;;3.90;;
25345;SDS011;13300;51.032;3.710;2022-08-21T06:41:11;9.85;;;3.65;;
25345;SDS011;13300;51.032;3.710;2022-08-21T06:43:37;8.15;;;2.75;;
25345;SDS011;13300;51.032;3.710;2022-08-21T06:46:03;11.32;;;3.63;;
25345;SDS011;13300;51.032;3.710;2022-08-21T06:48:29;10.80;;;3.03;;
25345;SDS011;13300;51.032;3.710;2022-08-21T06:50:57;17.08;;;3.55;;
25345;SDS011;13300;51.032;3.710;2022-08-21T06:53:24;13.40;;;3.90;;
25345;SDS011;13300;51.032;3.710;2022-08-21T06:55:49;9.52;;;2.97;;
25345;SDS011;13300;51.032;3.710;2022-08-21T06:58:16;10.05;;;3.08;;
25345;SDS011;13300;51.032;3.710;2022-08-21T07:00:43;9.23;;;3.38;;
25345;SDS011;13300;51.032;3.710;2022-08-21T07:06:01;9.85;;;2.90;;
25345;SDS011;13300;51.032;3.710;2022-08-21T07:08:29;9.45;;;3.42;;
25345;SDS011;13300;51.032;3.710;2022-08-21T07:10:56;14.30;;;3.25;;
25345;SDS011;13300;51.032;3.710;2022-08-21T07:13:24;9.90;;;3.08;;
25345;SDS011;13300;51.032;3.710;2022-08-21T07:15:50;7.75;;;3.25;;
25345;SDS011;13300;51.032;3.710;2022-08-21T07:18:16;11.27;;;3.10;;
25345;SDS011;13300;51.032;3.710;2022-08-21T07:20:42;8.90;;;3.10;;
25345;SDS011;13300;51.032;3.710;2022-08-21T07:23:15;9.70;;;2.70;;
25345;SDS011;13300;51.032;3.710;2022-08-21T07:25:49;7.85;;;2.85;;
25345;SDS011;13300;51.032;3.710;2022-08-21T07:28:15;13.85;;;2.85;;
25345;SDS011;13300;51.032;3.710;2022-08-21T07:30:41;7.93;;;2.80;;
25345;SDS011;13300;51.032;3.710;2022-08-21T07:33:07;9.85;;;2.55;;
25345;SDS011;13300;51.032;3.710;2022-08-21T07:35:32;6.43;;;2.53;;
25345;SDS011;13300;51.032;3.710;2022-08-21T07:37:58;10.02;;;2.70;;
25345;SDS011;13300;51.032;3.710;2022-08-21T07:40:25;10.52;;;2.40;;
25345;SDS011;13300;51.032;3.710;2022-08-21T07:42:50;10.60;;;2.08;;
25345;SDS011;13300;51.032;3.710;2022-08-21T07:45:17;10.95;;;2.72;;
25345;SDS011;13300;51.032;3.710;2022-08-21T07:47:45;10.40;;;2.40;;
25345;SDS011;13300;51.032;3.710;2022-08-21T07:50:12;16.38;;;2.95;;
25345;SDS011;13300;51.032;3.710;2022-08-21T07:52:38;11.57;;;3.22;;
25345;SDS011;13300;51.032;3.710;2022-08-21T07:55:05;11.30;;;2.80;;
25345;SDS011;13300;51.032;3.710;2022-08-21T07:57:32;11.55;;;3.35;;
25345;SDS011;13300;51.032;3.710;2022-08-21T07:59:58;14.48;;;2.60;;
25345;SDS011;13300;51.032;3.710;2022-08-21T08:02:25;11.40;;;2.85;;
25345;SDS011;13300;51.032;3.710;2022-08-21T08:04:51;11.20;;;2.72;;
25345;SDS011;13300;51.032;3.710;2022-08-21T08:07:18;8.57;;;3.00;;
25345;SDS011;13300;51.032;3.710;2022-08-21T08:09:44;11.05;;;3.08;;
25345;SDS011;13300;51.032;3.710;2022-08-21T08:12:10;12.70;;;2.85;;
25345;SDS011;13300;51.032;3.710;2022-08-21T08:14:36;10.50;;;2.67;;
25345;SDS011;13300;51.032;3.710;2022-08-21T08:17:01;8.40;;;2.72;;
25345;SDS011;13300;51.032;3.710;2022-08-21T08:19:27;10.30;;;3.25;;
25345;SDS011;13300;51.032;3.710;2022-08-21T08:21:54;9.88;;;2.30;;
25345;SDS011;13300;51.032;3.710;2022-08-21T08:24:20;9.48;;;2.55;;
25345;SDS011;13300;51.032;3.710;2022-08-21T08:26:46;11.05;;;3.17;;
25345;SDS011;13300;51.032;3.710;2022-08-21T08:29:12;9.55;;;2.83;;
25345;SDS011;13300;51.032;3.710;2022-08-21T08:31:37;8.52;;;2.47;;
25345;SDS011;13300;51.032;3.710;2022-08-21T08:34:03;8.15;;;2.33;;
25345;SDS011;13300;51.032;3.710;2022-08-21T08:36:33;7.95;;;2.58;;
25345;SDS011;13300;51.032;3.710;2022-08-21T08:39:01;9.45;;;2.35;;
25345;SDS011;13300;51.032;3.710;2022-08-21T08:41:28;11.00;;;2.70;;
25345;SDS011;13300;51.032;3.710;2022-08-21T08:44:01;8.75;;;2.80;;
25345;SDS011;13300;51.032;3.710;2022-08-21T08:49:06;9.90;;;2.65;;
25345;SDS011;13300;51.032;3.710;2022-08-21T08:51:46;8.35;;;2.88;;
25345;SDS011;13300;51.032;3.710;2022-08-21T08:54:31;7.25;;;2.30;;
25345;SDS011;13300;51.032;3.710;2022-08-21T08:57:10;8.95;;;2.72;;
25345;SDS011;13300;51.032;3.710;2022-08-21T08:59:41;10.10;;;2.85;;
25345;SDS011;13300;51.032;3.710;2022-08-21T09:02:14;8.95;;;2.72;;
25345;SDS011;13300;51.032;3.710;2022-08-21T09:04:41;10.38;;;3.03;;
25345;SDS011;13300;51.032;3.710;2022-08-21T09:09:38;12.70;;;3.65;;
25345;SDS011;13300;51.032;3.710;2022-08-21T09:12:29;13.25;;;2.70;;
25345;SDS011;13300;51.032;3.710;2022-08-21T09:18:21;13.05;;;2.45;;
25345;SDS011;13300;51.032;3.710;2022-08-21T09:23:55;9.75;;;2.78;;
25345;SDS011;13300;51.032;3.710;2022-08-21T09:28:56;9.18;;;2.20;;
25345;SDS011;13300;51.032;3.710;2022-08-21T09:31:25;8.90;;;2.50;;
25345;SDS011;13300;51.032;3.710;2022-08-21T09:34:06;10.98;;;2.35;;
25345;SDS011;13300;51.032;3.710;2022-08-21T09:36:49;7.43;;;2.08;;
25345;SDS011;13300;51.032;3.710;2022-08-21T09:42:08;7.78;;;2.13;;
25345;SDS011;13300;51.032;3.710;2022-08-21T09:44:36;7.35;;;2.17;;
25345;SDS011;13300;51.032;3.710;2022-08-21T09:47:06;7.10;;;1.95;;
25345;SDS011;13300;51.032;3.710;2022-08-21T09:49:34;8.00;;;3.05;;
25345;SDS011;13300;51.032;3.710;2022-08-21T09:52:05;8.07;;;2.08;;
25345;SDS011;13300;51.032;3.710;2022-08-21T09:54:41;8.77;;;2.33;;
25345;SDS011;13300;51.032;3.710;2022-08-21T10:00:07;8.50;;;2.30;;
25345;SDS011;13300;51.032;3.710;2022-08-21T10:02:35;9.38;;;2.00;;
25345;SDS011;13300;51.032;3.710;2022-08-21T10:07:53;10.05;;;2.15;;
25345;SDS011;13300;51.032;3.710;2022-08-21T10:10:29;7.35;;;1.98;;
25345;SDS011;13300;51.032;3.710;2022-08-21T10:13:09;12.80;;;2.58;;
25345;SDS011;13300;51.032;3.710;2022-08-21T10:16:30;11.18;;;2.45;;
25345;SDS011;13300;51.032;3.710;2022-08-21T10:19:04;5.20;;;1.80;;
25345;SDS011;13300;51.032;3.710;2022-08-21T10:21:48;5.97;;;2.00;;
25345;SDS011;13300;51.032;3.710;2022-08-21T10:30:02;8.05;;;2.53;;
25345;SDS011;13300;51.032;3.710;2022-08-21T10:46:12;9.13;;;2.65;;
25345;SDS011;13300;51.032;3.710;2022-08-21T10:57:05;6.95;;;2.33;;
25345;SDS011;13300;51.032;3.710;2022-08-21T10:59:47;8.70;;;2.28;;
25345;SDS011;13300;51.032;3.710;2022-08-21T11:02:22;8.48;;;1.90;;
25345;SDS011;13300;51.032;3.710;2022-08-21T11:07:33;8.38;;;2.20;;
25345;SDS011;13300;51.032;3.710;2022-08-21T11:10:10;12.02;;;2.13;;
25345;SDS011;13300;51.032;3.710;2022-08-21T11:12:52;8.07;;;2.40;;
25345;SDS011;13300;51.032;3.710;2022-08-21T11:20:49;8.48;;;2.22;;
25345;SDS011;13300;51.032;3.710;2022-08-21T11:23:21;9.15;;;2.20;;
25345;SDS011;13300;51.032;3.710;2022-08-21T11:25:53;8.88;;;2.78;;
25345;SDS011;13300;51.032;3.710;2022-08-21T11:28:26;10.50;;;2.30;;
25345;SDS011;13300;51.032;3.710;2022-08-21T11:31:14;6.75;;;1.95;;
25345;SDS011;13300;51.032;3.710;2022-08-21T11:37:08;10.23;;;2.60;;
25345;SDS011;13300;51.032;3.710;2022-08-21T11:40:05;11.38;;;2.65;;
25345;SDS011;13300;51.032;3.710;2022-08-21T11:42:47;8.00;;;2.05;;
25345;SDS011;13300;51.032;3.710;2022-08-21T11:45:33;11.05;;;2.50;;
25345;SDS011;13300;51.032;3.710;2022-08-21T11:48:15;9.98;;;2.33;;
25345;SDS011;13300;51.032;3.710;2022-08-21T11:50:42;7.40;;;2.03;;
25345;SDS011;13300;51.032;3.710;2022-08-21T11:55:46;9.63;;;2.70;;
25345;SDS011;13300;51.032;3.710;2022-08-21T11:58:30;7.88;;;2.15;;
25345;SDS011;13300;51.032;3.710;2022-08-21T12:01:07;10.43;;;2.65;;
25345;SDS011;13300;51.032;3.710;2022-08-21T12:03:37;11.23;;;2.80;;
25345;SDS011;13300;51.032;3.710;2022-08-21T12:06:08;6.90;;;1.92;;
25345;SDS011;13300;51.032;3.710;2022-08-21T12:08:39;9.32;;;2.17;;
25345;SDS011;13300;51.032;3.710;2022-08-21T12:16:33;9.75;;;2.60;;
25345;SDS011;13300;51.032;3.710;2022-08-21T12:19:08;9.57;;;2.97;;
25345;SDS011;13300;51.032;3.710;2022-08-21T12:24:40;9.43;;;2.17;;
25345;SDS011;13300;51.032;3.710;2022-08-21T12:27:29;9.07;;;2.10;;
25345;SDS011;13300;51.032;3.710;2022-08-21T12:32:53;6.88;;;2.10;;
25345;SDS011;13300;51.032;3.710;2022-08-21T12:35:24;7.70;;;2.25;;
25345;SDS011;13300;51.032;3.710;2022-08-21T12:37:57;8.27;;;2.38;;
25345;SDS011;13300;51.032;3.710;2022-08-21T12:41:11;9.40;;;2.20;;
25345;SDS011;13300;51.032;3.710;2022-08-21T12:43:35;8.77;;;2.20;;
25345;SDS011;13300;51.032;3.710;2022-08-21T12:46:05;11.95;;;2.72;;
25345;SDS011;13300;51.032;3.710;2022-08-21T12:48:33;10.68;;;2.42;;
25345;SDS011;13300;51.032;3.710;2022-08-21T12:51:32;13.20;;;2.72;;
25345;SDS011;13300;51.032;3.710;2022-08-21T12:54:09;8.90;;;2.08;;
25345;SDS011;13300;51.032;3.710;2022-08-21T12:56:34;6.88;;;1.95;;
25345;SDS011;13300;51.032;3.710;2022-08-21T12:59:02;9.45;;;2.00;;
25345;SDS011;13300;51.032;3.710;2022-08-21T13:01:38;8.73;;;2.20;;
25345;SDS011;13300;51.032;3.710;2022-08-21T13:04:19;9.77;;;2.17;;
25345;SDS011;13300;51.032;3.710;2022-08-21T13:07:01;6.00;;;2.33;;
25345;SDS011;13300;51.032;3.710;2022-08-21T13:09:32;11.57;;;2.60;;
25345;SDS011;13300;51.032;3.710;2022-08-21T13:11:58;7.38;;;2.03;;
25345;SDS011;13300;51.032;3.710;2022-08-21T13:14:29;8.00;;;2.05;;
25345;SDS011;13300;51.032;3.710;2022-08-21T13:16:56;8.85;;;2.17;;
25345;SDS011;13300;51.032;3.710;2022-08-21T13:19:24;7.38;;;2.17;;
25345;SDS011;13300;51.032;3.710;2022-08-21T13:21:51;7.03;;;2.00;;
25345;SDS011;13300;51.032;3.710;2022-08-21T13:24:19;9.63;;;1.98;;
25345;SDS011;13300;51.032;3.710;2022-08-21T13:26:50;8.30;;;2.05;;
25345;SDS011;13300;51.032;3.710;2022-08-21T13:29:17;7.72;;;2.10;;
25345;SDS011;13300;51.032;3.710;2022-08-21T13:31:56;8.93;;;1.92;;
25345;SDS011;13300;51.032;3.710;2022-08-21T13:34:31;9.57;;;1.92;;
25345;SDS011;13300;51.032;3.710;2022-08-21T13:37:02;7.85;;;1.95;;
25345;SDS011;13300;51.032;3.710;2022-08-21T13:39:30;7.25;;;1.88;;
25345;SDS011;13300;51.032;3.710;2022-08-21T13:41:58;13.63;;;3.05;;
25345;SDS011;13300;51.032;3.710;2022-08-21T13:47:21;6.63;;;1.92;;
25345;SDS011;13300;51.032;3.710;2022-08-21T13:49:47;5.85;;;1.73;;
25345;SDS011;13300;51.032;3.710;2022-08-21T13:52:21;9.88;;;2.58;;
25345;SDS011;13300;51.032;3.710;2022-08-21T13:54:58;6.57;;;2.10;;
25345;SDS011;13300;51.032;3.710;2022-08-21T13:59:51;9.35;;;2.30;;
25345;SDS011;13300;51.032;3.710;2022-08-21T14:02:20;7.45;;;2.03;;
25345;SDS011;13300;51.032;3.710;2022-08-21T14:04:58;8.43;;;1.95;;
25345;SDS011;13300;51.032;3.710;2022-08-21T14:13:02;9.52;;;2.10;;
25345;SDS011;13300;51.032;3.710;2022-08-21T14:15:32;6.57;;;1.92;;
25345;SDS011;13300;51.032;3.710;2022-08-21T14:18:07;6.38;;;2.00;;
25345;SDS011;13300;51.032;3.710;2022-08-21T14:20:40;8.50;;;2.30;;
25345;SDS011;13300;51.032;3.710;2022-08-21T14:23:06;9.25;;;2.40;;
25345;SDS011;13300;51.032;3.710;2022-08-21T14:25:40;7.45;;;1.98;;
25345;SDS011;13300;51.032;3.710;2022-08-21T14:28:15;6.88;;;1.77;;
25345;SDS011;13300;51.032;3.710;2022-08-21T14:30:57;9.90;;;2.75;;
25345;SDS011;13300;51.032;3.710;2022-08-21T14:33:35;9.68;;;2.45;;
25345;SDS011;13300;51.032;3.710;2022-08-21T14:36:01;8.38;;;2.58;;
25345;SDS011;13300;51.032;3.710;2022-08-21T14:38:27;10.05;;;2.40;;
25345;SDS011;13300;51.032;3.710;2022-08-21T14:41:00;8.80;;;2.20;;
25345;SDS011;13300;51.032;3.710;2022-08-21T14:43:33;10.30;;;2.38;;
25345;SDS011;13300;51.032;3.710;2022-08-21T14:45:58;7.63;;;2.05;;
25345;SDS011;13300;51.032;3.710;2022-08-21T14:48:26;12.88;;;2.35;;
25345;SDS011;13300;51.032;3.710;2022-08-21T14:50:51;10.50;;;2.55;;
25345;SDS011;13300;51.032;3.710;2022-08-21T14:53:17;12.80;;;2.47;;
25345;SDS011;13300;51.032;3.710;2022-08-21T14:55:43;8.43;;;2.17;;
25345;SDS011;13300;51.032;3.710;2022-08-21T14:58:27;7.13;;;2.00;;
25345;SDS011;13300;51.032;3.710;2022-08-21T15:00:53;7.93;;;2.08;;
25345;SDS011;13300;51.032;3.710;2022-08-21T15:03:20;10.55;;;2.10;;
25345;SDS011;13300;51.032;3.710;2022-08-21T15:05:49;8.07;;;2.13;;
25345;SDS011;13300;51.032;3.710;2022-08-21T15:08:15;12.68;;;2.30;;
25345;SDS011;13300;51.032;3.710;2022-08-21T15:10:41;9.80;;;2.85;;
25345;SDS011;13300;51.032;3.710;2022-08-21T15:13:06;9.63;;;2.63;;
25345;SDS011;13300;51.032;3.710;2022-08-21T15:15:34;7.47;;;2.25;;
25345;SDS011;13300;51.032;3.710;2022-08-21T15:18:04;8.00;;;2.05;;
25345;SDS011;13300;51.032;3.710;2022-08-21T15:20:30;8.98;;;2.42;;
25345;SDS011;13300;51.032;3.710;2022-08-21T15:22:56;10.73;;;2.50;;
25345;SDS011;13300;51.032;3.710;2022-08-21T15:25:22;7.97;;;2.42;;
25345;SDS011;13300;51.032;3.710;2022-08-21T15:27:48;8.95;;;2.00;;
25345;SDS011;13300;51.032;3.710;2022-08-21T15:30:14;9.57;;;2.03;;
25345;SDS011;13300;51.032;3.710;2022-08-21T15:32:40;8.32;;;2.35;;
25345;SDS011;13300;51.032;3.710;2022-08-21T15:35:06;8.00;;;2.30;;
25345;SDS011;13300;51.032;3.710;2022-08-21T15:37:33;10.25;;;1.90;;
25345;SDS011;13300;51.032;3.710;2022-08-21T15:39:58;12.05;;;2.50;;
25345;SDS011;13300;51.032;3.710;2022-08-21T15:42:25;8.15;;;2.38;;
25345;SDS011;13300;51.032;3.710;2022-08-21T15:44:51;6.30;;;2.05;;
25345;SDS011;13300;51.032;3.710;2022-08-21T15:47:20;8.73;;;2.70;;
25345;SDS011;13300;51.032;3.710;2022-08-21T15:49:49;7.32;;;1.95;;
25345;SDS011;13300;51.032;3.710;2022-08-21T15:52:16;7.40;;;2.30;;
25345;SDS011;13300;51.032;3.710;2022-08-21T15:54:44;11.05;;;2.40;;
25345;SDS011;13300;51.032;3.710;2022-08-21T15:57:12;10.27;;;2.92;;
25345;SDS011;13300;51.032;3.710;2022-08-21T15:59:40;7.13;;;2.22;;
25345;SDS011;13300;51.032;3.710;2022-08-21T16:02:15;9.85;;;2.22;;
25345;SDS011;13300;51.032;3.710;2022-08-21T16:04:56;14.57;;;3.08;;
25345;SDS011;13300;51.032;3.710;2022-08-21T16:07:22;13.18;;;2.47;;
25345;SDS011;13300;51.032;3.710;2022-08-21T16:09:48;10.98;;;2.45;;
25345;SDS011;13300;51.032;3.710;2022-08-21T16:12:22;8.82;;;2.90;;
25345;SDS011;13300;51.032;3.710;2022-08-21T16:14:51;12.13;;;2.20;;
25345;SDS011;13300;51.032;3.710;2022-08-21T16:17:17;11.23;;;2.15;;
25345;SDS011;13300;51.032;3.710;2022-08-21T16:19:44;8.57;;;2.30;;
25345;SDS011;13300;51.032;3.710;2022-08-21T16:22:10;12.38;;;2.70;;
25345;SDS011;13300;51.032;3.710;2022-08-21T16:24:36;7.00;;;2.17;;
25345;SDS011;13300;51.032;3.710;2022-08-21T16:27:01;8.65;;;2.78;;
25345;SDS011;13300;51.032;3.710;2022-08-21T16:29:29;8.85;;;2.05;;